sensor_id;sensor_type;location;lat;lon;timestamp;P1;durP1;ratioP1;P2;durP2;ratioP2
12635;SDS011;6383;50.830;7.210;2024-01-11T00:02:08;40.80;;;27.17;;
12635;SDS011;6383;50.830;7.210;2024-01-11T00:04:37;38.78;;;27.08;;
12635;SDS011;6383;50.830;7.210;2024-01-11T00:07:07;40.25;;;26.27;;
12635;SDS011;6383;50.830;7.210;2024-01-11T00:09:38;37.65;;;25.45;;
12635;SDS011;6383;50.830;7.210;2024-01-11T00:12:07;40.03;;;25.23;;
12635;SDS011;6383;50.830;7.210;2024-01-11T00:14:38;40.00;;;26.88;;
12635;SDS011;6383;50.830;7.210;2024-01-11T00:17:07;36.92;;;25.30;;
12635;SDS011;6383;50.830;7.210;2024-01-11T00:19:36;38.78;;;27.13;;
12635;SDS011;6383;50.830;7.210;2024-01-11T00:22:05;40.90;;;26.67;;
12635;SDS011;6383;50.830;7.210;2024-01-11T00:24:34;44.38;;;27.48;;
12635;SDS011;6383;50.830;7.210;2024-01-11T00:27:04;40.33;;;26.45;;
12635;SDS011;6383;50.830;7.210;2024-01-11T00:29:35;40.05;;;26.13;;
12635;SDS011;6383;50.830;7.210;2024-01-11T00:32:04;39.83;;;25.73;;
12635;SDS011;6383;50.830;7.210;2024-01-11T00:34:34;42.45;;;26.83;;
12635;SDS011;6383;50.830;7.210;2024-01-11T00:37:03;42.05;;;27.52;;
12635;SDS011;6383;50.830;7.210;2024-01-11T00:39:31;39.17;;;27.08;;
12635;SDS011;6383;50.830;7.210;2024-01-11T00:41:59;48.47;;;29.73;;
12635;SDS011;6383;50.830;7.210;2024-01-11T00:44:28;50.50;;;31.15;;
12635;SDS011;6383;50.830;7.210;2024-01-11T00:46:59;51.65;;;31.65;;
12635;SDS011;6383;50.830;7.210;2024-01-11T00:49:28;48.35;;;29.70;;
12635;SDS011;6383;50.830;7.210;2024-01-11T00:51:57;48.03;;;30.40;;
12635;SDS011;6383;50.830;7.210;2024-01-11T00:54:26;43.63;;;28.63;;
12635;SDS011;6383;50.830;7.210;2024-01-11T00:56:55;40.13;;;26.85;;
12635;SDS011;6383;50.830;7.210;2024-01-11T00:59:24;41.42;;;25.27;;
12635;SDS011;6383;50.830;7.210;2024-01-11T01:01:53;37.45;;;24.73;;
12635;SDS011;6383;50.830;7.210;2024-01-11T01:04:24;39.00;;;25.50;;
12635;SDS011;6383;50.830;7.210;2024-01-11T01:06:53;35.30;;;25.45;;
12635;SDS011;6383;50.830;7.210;2024-01-11T01:09:22;41.40;;;25.58;;
12635;SDS011;6383;50.830;7.210;2024-01-11T01:11:51;37.77;;;25.70;;
12635;SDS011;6383;50.830;7.210;2024-01-11T01:14:20;37.22;;;25.05;;
12635;SDS011;6383;50.830;7.210;2024-01-11T01:16:49;39.88;;;25.05;;
12635;SDS011;6383;50.830;7.210;2024-01-11T01:19:18;36.00;;;25.50;;
12635;SDS011;6383;50.830;7.210;2024-01-11T01:21:48;37.35;;;25.23;;
12635;SDS011;6383;50.830;7.210;2024-01-11T01:24:17;40.50;;;25.73;;
12635;SDS011;6383;50.830;7.210;2024-01-11T01:26:46;41.05;;;26.73;;
12635;SDS011;6383;50.830;7.210;2024-01-11T01:29:15;37.67;;;25.70;;
12635;SDS011;6383;50.830;7.210;2024-01-11T01:31:44;37.27;;;25.40;;
12635;SDS011;6383;50.830;7.210;2024-01-11T01:34:14;39.40;;;25.85;;
12635;SDS011;6383;50.830;7.210;2024-01-11T01:36:43;36.03;;;24.27;;
12635;SDS011;6383;50.830;7.210;2024-01-11T01:39:13;36.70;;;25.65;;
12635;SDS011;6383;50.830;7.210;2024-01-11T01:41:43;40.20;;;25.50;;
12635;SDS011;6383;50.830;7.210;2024-01-11T01:44:12;37.45;;;25.75;;
12635;SDS011;6383;50.830;7.210;2024-01-11T01:46:41;40.97;;;26.98;;
12635;SDS011;6383;50.830;7.210;2024-01-11T01:49:10;39.15;;;25.77;;
12635;SDS011;6383;50.830;7.210;2024-01-11T01:51:40;39.88;;;25.75;;
12635;SDS011;6383;50.830;7.210;2024-01-11T01:54:09;40.45;;;26.48;;
12635;SDS011;6383;50.830;7.210;2024-01-11T01:56:40;40.80;;;26.27;;
12635;SDS011;6383;50.830;7.210;2024-01-11T01:59:09;40.30;;;25.42;;
12635;SDS011;6383;50.830;7.210;2024-01-11T02:01:39;39.30;;;25.88;;
12635;SDS011;6383;50.830;7.210;2024-01-11T02:04:08;39.22;;;26.80;;
12635;SDS011;6383;50.830;7.210;2024-01-11T02:06:38;37.07;;;25.20;;
12635;SDS011;6383;50.830;7.210;2024-01-11T02:09:07;39.10;;;26.38;;
12635;SDS011;6383;50.830;7.210;2024-01-11T02:11:37;39.60;;;25.77;;
12635;SDS011;6383;50.830;7.210;2024-01-11T02:14:08;39.77;;;26.67;;
12635;SDS011;6383;50.830;7.210;2024-01-11T02:16:39;39.72;;;25.77;;
12635;SDS011;6383;50.830;7.210;2024-01-11T02:19:08;41.58;;;26.42;;
12635;SDS011;6383;50.830;7.210;2024-01-11T02:21:41;39.07;;;26.17;;
12635;SDS011;6383;50.830;7.210;2024-01-11T02:24:12;39.05;;;26.17;;
12635;SDS011;6383;50.830;7.210;2024-01-11T02:26:57;37.25;;;25.83;;
12635;SDS011;6383;50.830;7.210;2024-01-11T02:29:27;40.83;;;26.58;;
12635;SDS011;6383;50.830;7.210;2024-01-11T02:31:57;39.05;;;26.52;;
12635;SDS011;6383;50.830;7.210;2024-01-11T02:34:28;40.38;;;26.20;;
12635;SDS011;6383;50.830;7.210;2024-01-11T02:36:58;38.08;;;25.23;;
12635;SDS011;6383;50.830;7.210;2024-01-11T02:39:31;42.13;;;26.75;;
12635;SDS011;6383;50.830;7.210;2024-01-11T02:42:00;46.00;;;27.45;;
12635;SDS011;6383;50.830;7.210;2024-01-11T02:44:29;44.53;;;28.77;;
12635;SDS011;6383;50.830;7.210;2024-01-11T02:46:58;43.55;;;27.83;;
12635;SDS011;6383;50.830;7.210;2024-01-11T02:49:27;40.78;;;25.98;;
12635;SDS011;6383;50.830;7.210;2024-01-11T02:51:56;41.43;;;26.13;;
12635;SDS011;6383;50.830;7.210;2024-01-11T02:54:25;41.15;;;26.13;;
12635;SDS011;6383;50.830;7.210;2024-01-11T02:56:56;38.33;;;25.65;;
12635;SDS011;6383;50.830;7.210;2024-01-11T02:59:25;40.95;;;25.98;;
12635;SDS011;6383;50.830;7.210;2024-01-11T03:01:54;41.03;;;27.10;;
12635;SDS011;6383;50.830;7.210;2024-01-11T03:04:23;41.20;;;25.27;;
12635;SDS011;6383;50.830;7.210;2024-01-11T03:06:52;38.53;;;25.00;;
12635;SDS011;6383;50.830;7.210;2024-01-11T03:09:21;38.67;;;25.98;;
12635;SDS011;6383;50.830;7.210;2024-01-11T03:11:50;39.28;;;25.58;;
12635;SDS011;6383;50.830;7.210;2024-01-11T03:14:24;39.83;;;25.50;;
12635;SDS011;6383;50.830;7.210;2024-01-11T03:16:53;38.45;;;25.63;;
12635;SDS011;6383;50.830;7.210;2024-01-11T03:19:22;41.63;;;26.20;;
12635;SDS011;6383;50.830;7.210;2024-01-11T03:21:51;40.00;;;25.83;;
12635;SDS011;6383;50.830;7.210;2024-01-11T03:24:20;39.65;;;25.25;;
12635;SDS011;6383;50.830;7.210;2024-01-11T03:26:49;39.75;;;24.30;;
12635;SDS011;6383;50.830;7.210;2024-01-11T03:29:18;39.63;;;24.35;;
12635;SDS011;6383;50.830;7.210;2024-01-11T03:31:48;39.47;;;24.65;;
12635;SDS011;6383;50.830;7.210;2024-01-11T03:34:17;38.50;;;25.83;;
12635;SDS011;6383;50.830;7.210;2024-01-11T03:36:46;38.30;;;24.77;;
12635;SDS011;6383;50.830;7.210;2024-01-11T03:39:15;40.20;;;26.73;;
12635;SDS011;6383;50.830;7.210;2024-01-11T03:41:46;38.88;;;25.17;;
12635;SDS011;6383;50.830;7.210;2024-01-11T03:44:15;39.70;;;23.90;;
12635;SDS011;6383;50.830;7.210;2024-01-11T03:46:44;40.35;;;25.35;;
12635;SDS011;6383;50.830;7.210;2024-01-11T03:49:14;37.05;;;24.92;;
12635;SDS011;6383;50.830;7.210;2024-01-11T03:51:43;38.58;;;24.25;;
12635;SDS011;6383;50.830;7.210;2024-01-11T03:54:12;42.85;;;25.90;;
12635;SDS011;6383;50.830;7.210;2024-01-11T03:56:41;43.58;;;25.17;;
12635;SDS011;6383;50.830;7.210;2024-01-11T03:59:11;43.05;;;27.45;;
12635;SDS011;6383;50.830;7.210;2024-01-11T04:01:40;44.53;;;26.35;;
12635;SDS011;6383;50.830;7.210;2024-01-11T04:04:10;44.45;;;26.88;;
12635;SDS011;6383;50.830;7.210;2024-01-11T04:06:41;43.67;;;26.60;;
12635;SDS011;6383;50.830;7.210;2024-01-11T04:09:10;41.67;;;25.70;;
12635;SDS011;6383;50.830;7.210;2024-01-11T04:11:39;35.53;;;23.67;;
12635;SDS011;6383;50.830;7.210;2024-01-11T04:14:08;37.65;;;24.13;;
12635;SDS011;6383;50.830;7.210;2024-01-11T04:16:39;36.25;;;24.73;;
12635;SDS011;6383;50.830;7.210;2024-01-11T04:19:08;42.40;;;26.10;;
12635;SDS011;6383;50.830;7.210;2024-01-11T04:21:38;46.73;;;25.27;;
12635;SDS011;6383;50.830;7.210;2024-01-11T04:24:08;50.10;;;28.85;;
12635;SDS011;6383;50.830;7.210;2024-01-11T04:26:37;50.53;;;28.60;;
12635;SDS011;6383;50.830;7.210;2024-01-11T04:29:06;47.85;;;29.08;;
12635;SDS011;6383;50.830;7.210;2024-01-11T04:31:36;43.08;;;26.25;;
12635;SDS011;6383;50.830;7.210;2024-01-11T04:34:05;46.70;;;26.90;;
12635;SDS011;6383;50.830;7.210;2024-01-11T04:36:32;42.55;;;26.63;;
12635;SDS011;6383;50.830;7.210;2024-01-11T04:39:00;38.55;;;26.92;;
12635;SDS011;6383;50.830;7.210;2024-01-11T04:41:31;39.70;;;27.00;;
12635;SDS011;6383;50.830;7.210;2024-01-11T04:44:00;39.65;;;25.50;;
12635;SDS011;6383;50.830;7.210;2024-01-11T04:46:29;42.28;;;26.02;;
12635;SDS011;6383;50.830;7.210;2024-01-11T04:48:58;44.88;;;28.05;;
12635;SDS011;6383;50.830;7.210;2024-01-11T04:51:27;39.10;;;25.70;;
12635;SDS011;6383;50.830;7.210;2024-01-11T04:53:56;38.73;;;25.17;;
12635;SDS011;6383;50.830;7.210;2024-01-11T04:56:25;37.80;;;24.55;;
12635;SDS011;6383;50.830;7.210;2024-01-11T04:58:55;39.72;;;25.25;;
12635;SDS011;6383;50.830;7.210;2024-01-11T05:01:24;41.38;;;26.73;;
12635;SDS011;6383;50.830;7.210;2024-01-11T05:03:53;39.30;;;26.20;;
12635;SDS011;6383;50.830;7.210;2024-01-11T05:06:23;44.47;;;27.58;;
12635;SDS011;6383;50.830;7.210;2024-01-11T05:08:53;42.67;;;28.50;;
12635;SDS011;6383;50.830;7.210;2024-01-11T05:11:22;45.43;;;29.73;;
12635;SDS011;6383;50.830;7.210;2024-01-11T05:13:52;43.40;;;28.13;;
12635;SDS011;6383;50.830;7.210;2024-01-11T05:16:23;41.08;;;26.20;;
12635;SDS011;6383;50.830;7.210;2024-01-11T05:18:54;42.10;;;26.48;;
12635;SDS011;6383;50.830;7.210;2024-01-11T05:21:24;45.50;;;28.00;;
12635;SDS011;6383;50.830;7.210;2024-01-11T05:23:53;41.60;;;26.05;;
12635;SDS011;6383;50.830;7.210;2024-01-11T05:26:22;41.97;;;26.60;;
12635;SDS011;6383;50.830;7.210;2024-01-11T05:28:51;39.20;;;25.67;;
12635;SDS011;6383;50.830;7.210;2024-01-11T05:31:20;39.50;;;26.23;;
12635;SDS011;6383;50.830;7.210;2024-01-11T05:33:51;38.80;;;25.20;;
12635;SDS011;6383;50.830;7.210;2024-01-11T05:36:20;39.17;;;25.13;;
12635;SDS011;6383;50.830;7.210;2024-01-11T05:38:49;39.00;;;25.67;;
12635;SDS011;6383;50.830;7.210;2024-01-11T05:41:18;36.45;;;24.85;;
12635;SDS011;6383;50.830;7.210;2024-01-11T05:43:47;41.07;;;25.33;;
12635;SDS011;6383;50.830;7.210;2024-01-11T05:46:16;42.40;;;25.38;;
12635;SDS011;6383;50.830;7.210;2024-01-11T05:48:45;38.92;;;25.65;;
12635;SDS011;6383;50.830;7.210;2024-01-11T05:51:15;37.60;;;25.25;;
12635;SDS011;6383;50.830;7.210;2024-01-11T05:53:45;38.50;;;26.00;;
12635;SDS011;6383;50.830;7.210;2024-01-11T05:56:14;38.22;;;24.38;;
12635;SDS011;6383;50.830;7.210;2024-01-11T05:58:43;40.30;;;25.35;;
12635;SDS011;6383;50.830;7.210;2024-01-11T06:01:12;38.50;;;25.10;;
12635;SDS011;6383;50.830;7.210;2024-01-11T06:03:41;37.67;;;25.08;;
12635;SDS011;6383;50.830;7.210;2024-01-11T06:06:10;38.17;;;25.60;;
12635;SDS011;6383;50.830;7.210;2024-01-11T06:08:40;39.83;;;26.73;;
12635;SDS011;6383;50.830;7.210;2024-01-11T06:11:11;47.42;;;29.05;;
12635;SDS011;6383;50.830;7.210;2024-01-11T06:13:40;46.13;;;27.95;;
12635;SDS011;6383;50.830;7.210;2024-01-11T06:16:09;40.92;;;25.83;;
12635;SDS011;6383;50.830;7.210;2024-01-11T06:18:38;40.67;;;25.90;;
12635;SDS011;6383;50.830;7.210;2024-01-11T06:21:07;42.35;;;27.23;;
12635;SDS011;6383;50.830;7.210;2024-01-11T06:23:36;46.80;;;30.38;;
12635;SDS011;6383;50.830;7.210;2024-01-11T06:26:07;46.78;;;30.17;;
12635;SDS011;6383;50.830;7.210;2024-01-11T06:28:36;41.70;;;28.17;;
12635;SDS011;6383;50.830;7.210;2024-01-11T06:31:05;44.70;;;27.33;;
12635;SDS011;6383;50.830;7.210;2024-01-11T06:33:33;41.30;;;27.75;;
12635;SDS011;6383;50.830;7.210;2024-01-11T06:36:04;43.88;;;27.20;;
12635;SDS011;6383;50.830;7.210;2024-01-11T06:38:33;41.55;;;27.05;;
12635;SDS011;6383;50.830;7.210;2024-01-11T06:41:01;38.28;;;25.67;;
12635;SDS011;6383;50.830;7.210;2024-01-11T06:43:31;42.28;;;27.70;;
12635;SDS011;6383;50.830;7.210;2024-01-11T06:46:03;43.83;;;29.13;;
12635;SDS011;6383;50.830;7.210;2024-01-11T06:48:31;59.28;;;39.92;;
12635;SDS011;6383;50.830;7.210;2024-01-11T06:51:00;47.47;;;31.42;;
12635;SDS011;6383;50.830;7.210;2024-01-11T06:53:29;41.85;;;27.23;;
12635;SDS011;6383;50.830;7.210;2024-01-11T06:55:58;40.37;;;26.97;;
12635;SDS011;6383;50.830;7.210;2024-01-11T06:58:27;39.25;;;25.05;;
12635;SDS011;6383;50.830;7.210;2024-01-11T07:00:58;43.53;;;25.42;;
12635;SDS011;6383;50.830;7.210;2024-01-11T07:03:27;39.17;;;25.50;;
12635;SDS011;6383;50.830;7.210;2024-01-11T07:05:56;36.27;;;25.00;;
12635;SDS011;6383;50.830;7.210;2024-01-11T07:08:25;41.53;;;25.67;;
12635;SDS011;6383;50.830;7.210;2024-01-11T07:10:54;39.03;;;25.40;;
12635;SDS011;6383;50.830;7.210;2024-01-11T07:13:24;40.47;;;25.47;;
12635;SDS011;6383;50.830;7.210;2024-01-11T07:15:53;33.80;;;22.45;;
12635;SDS011;6383;50.830;7.210;2024-01-11T07:18:24;40.00;;;24.77;;
12635;SDS011;6383;50.830;7.210;2024-01-11T07:20:55;35.20;;;23.70;;
12635;SDS011;6383;50.830;7.210;2024-01-11T07:23:25;37.38;;;24.88;;
12635;SDS011;6383;50.830;7.210;2024-01-11T07:25:54;38.85;;;24.52;;
12635;SDS011;6383;50.830;7.210;2024-01-11T07:28:24;39.70;;;24.70;;
12635;SDS011;6383;50.830;7.210;2024-01-11T07:30:53;35.75;;;23.92;;
12635;SDS011;6383;50.830;7.210;2024-01-11T07:33:22;37.97;;;24.60;;
12635;SDS011;6383;50.830;7.210;2024-01-11T07:35:52;37.13;;;23.50;;
12635;SDS011;6383;50.830;7.210;2024-01-11T07:38:21;37.20;;;23.10;;
12635;SDS011;6383;50.830;7.210;2024-01-11T07:40:50;36.95;;;23.15;;
12635;SDS011;6383;50.830;7.210;2024-01-11T07:43:19;41.63;;;26.67;;
12635;SDS011;6383;50.830;7.210;2024-01-11T07:45:49;41.58;;;27.00;;
12635;SDS011;6383;50.830;7.210;2024-01-11T07:48:18;45.17;;;28.60;;
12635;SDS011;6383;50.830;7.210;2024-01-11T07:50:47;75.13;;;43.22;;
12635;SDS011;6383;50.830;7.210;2024-01-11T07:53:17;83.68;;;49.30;;
12635;SDS011;6383;50.830;7.210;2024-01-11T07:55:46;88.40;;;49.72;;
12635;SDS011;6383;50.830;7.210;2024-01-11T07:58:16;63.22;;;37.83;;
12635;SDS011;6383;50.830;7.210;2024-01-11T08:00:45;61.50;;;37.30;;
12635;SDS011;6383;50.830;7.210;2024-01-11T08:03:15;77.80;;;42.92;;
12635;SDS011;6383;50.830;7.210;2024-01-11T08:05:44;91.63;;;46.72;;
12635;SDS011;6383;50.830;7.210;2024-01-11T08:08:13;105.55;;;52.60;;
12635;SDS011;6383;50.830;7.210;2024-01-11T08:10:44;61.63;;;38.40;;
12635;SDS011;6383;50.830;7.210;2024-01-11T08:13:13;58.65;;;34.25;;
12635;SDS011;6383;50.830;7.210;2024-01-11T08:15:42;48.80;;;30.95;;
12635;SDS011;6383;50.830;7.210;2024-01-11T08:18:11;53.67;;;34.08;;
12635;SDS011;6383;50.830;7.210;2024-01-11T08:20:41;54.33;;;32.43;;
12635;SDS011;6383;50.830;7.210;2024-01-11T08:23:10;58.67;;;34.65;;
12635;SDS011;6383;50.830;7.210;2024-01-11T08:25:39;55.05;;;32.67;;
12635;SDS011;6383;50.830;7.210;2024-01-11T08:28:12;48.53;;;31.40;;
12635;SDS011;6383;50.830;7.210;2024-01-11T08:30:42;51.07;;;33.30;;
12635;SDS011;6383;50.830;7.210;2024-01-11T08:33:13;50.00;;;32.57;;
12635;SDS011;6383;50.830;7.210;2024-01-11T08:35:43;53.08;;;33.63;;
12635;SDS011;6383;50.830;7.210;2024-01-11T08:38:12;47.90;;;31.50;;
12635;SDS011;6383;50.830;7.210;2024-01-11T08:40:42;50.03;;;31.23;;
12635;SDS011;6383;50.830;7.210;2024-01-11T08:43:13;47.15;;;30.33;;
12635;SDS011;6383;50.830;7.210;2024-01-11T08:45:42;47.92;;;31.48;;
12635;SDS011;6383;50.830;7.210;2024-01-11T08:48:12;47.55;;;32.38;;
12635;SDS011;6383;50.830;7.210;2024-01-11T08:50:41;51.75;;;34.97;;
12635;SDS011;6383;50.830;7.210;2024-01-11T08:53:10;48.95;;;33.25;;
12635;SDS011;6383;50.830;7.210;2024-01-11T08:55:39;53.63;;;32.85;;
12635;SDS011;6383;50.830;7.210;2024-01-11T08:58:08;58.20;;;35.15;;
12635;SDS011;6383;50.830;7.210;2024-01-11T09:00:39;50.08;;;33.00;;
12635;SDS011;6383;50.830;7.210;2024-01-11T09:03:08;56.22;;;34.05;;
12635;SDS011;6383;50.830;7.210;2024-01-11T09:05:39;51.80;;;32.80;;
12635;SDS011;6383;50.830;7.210;2024-01-11T09:08:08;44.60;;;29.45;;
12635;SDS011;6383;50.830;7.210;2024-01-11T09:10:37;45.88;;;30.35;;
12635;SDS011;6383;50.830;7.210;2024-01-11T09:13:06;43.95;;;28.52;;
12635;SDS011;6383;50.830;7.210;2024-01-11T09:15:33;45.42;;;28.90;;
12635;SDS011;6383;50.830;7.210;2024-01-11T09:18:03;41.70;;;29.02;;
12635;SDS011;6383;50.830;7.210;2024-01-11T09:20:31;42.97;;;29.02;;
12635;SDS011;6383;50.830;7.210;2024-01-11T09:23:01;43.65;;;28.88;;
12635;SDS011;6383;50.830;7.210;2024-01-11T09:25:31;46.53;;;29.63;;
12635;SDS011;6383;50.830;7.210;2024-01-11T09:28:00;45.73;;;29.77;;
12635;SDS011;6383;50.830;7.210;2024-01-11T09:30:29;44.88;;;28.95;;
12635;SDS011;6383;50.830;7.210;2024-01-11T09:32:58;41.73;;;28.77;;
12635;SDS011;6383;50.830;7.210;2024-01-11T09:35:29;46.30;;;31.50;;
12635;SDS011;6383;50.830;7.210;2024-01-11T09:37:58;45.03;;;30.67;;
12635;SDS011;6383;50.830;7.210;2024-01-11T09:40:28;46.80;;;30.50;;
12635;SDS011;6383;50.830;7.210;2024-01-11T09:42:57;44.63;;;29.45;;
12635;SDS011;6383;50.830;7.210;2024-01-11T09:45:27;49.75;;;30.15;;
12635;SDS011;6383;50.830;7.210;2024-01-11T09:47:56;47.63;;;30.65;;
12635;SDS011;6383;50.830;7.210;2024-01-11T09:50:25;46.30;;;29.30;;
12635;SDS011;6383;50.830;7.210;2024-01-11T09:52:56;45.17;;;30.20;;
12635;SDS011;6383;50.830;7.210;2024-01-11T09:55:26;40.20;;;28.35;;
12635;SDS011;6383;50.830;7.210;2024-01-11T09:57:56;42.70;;;29.92;;
12635;SDS011;6383;50.830;7.210;2024-01-11T10:00:28;44.25;;;29.75;;
12635;SDS011;6383;50.830;7.210;2024-01-11T10:02:57;43.97;;;29.80;;
12635;SDS011;6383;50.830;7.210;2024-01-11T10:05:26;44.75;;;28.70;;
12635;SDS011;6383;50.830;7.210;2024-01-11T10:07:59;43.28;;;28.70;;
12635;SDS011;6383;50.830;7.210;2024-01-11T10:10:28;45.40;;;28.92;;
12635;SDS011;6383;50.830;7.210;2024-01-11T10:12:59;38.42;;;27.40;;
12635;SDS011;6383;50.830;7.210;2024-01-11T10:15:28;42.67;;;28.05;;
12635;SDS011;6383;50.830;7.210;2024-01-11T10:17:57;42.97;;;29.30;;
12635;SDS011;6383;50.830;7.210;2024-01-11T10:20:27;39.20;;;28.08;;
12635;SDS011;6383;50.830;7.210;2024-01-11T10:22:59;44.58;;;31.02;;
12635;SDS011;6383;50.830;7.210;2024-01-11T10:25:28;43.40;;;27.92;;
12635;SDS011;6383;50.830;7.210;2024-01-11T10:27:58;40.65;;;27.70;;
12635;SDS011;6383;50.830;7.210;2024-01-11T10:30:27;42.70;;;29.00;;
12635;SDS011;6383;50.830;7.210;2024-01-11T10:32:57;46.53;;;28.73;;
12635;SDS011;6383;50.830;7.210;2024-01-11T10:35:26;41.10;;;28.60;;
12635;SDS011;6383;50.830;7.210;2024-01-11T10:37:55;43.47;;;29.02;;
12635;SDS011;6383;50.830;7.210;2024-01-11T10:40:27;47.75;;;29.52;;
12635;SDS011;6383;50.830;7.210;2024-01-11T10:42:57;48.45;;;30.92;;
12635;SDS011;6383;50.830;7.210;2024-01-11T10:45:29;50.35;;;31.00;;
12635;SDS011;6383;50.830;7.210;2024-01-11T10:48:00;49.63;;;31.75;;
12635;SDS011;6383;50.830;7.210;2024-01-11T10:50:33;45.40;;;30.50;;
12635;SDS011;6383;50.830;7.210;2024-01-11T10:53:07;45.35;;;31.02;;
12635;SDS011;6383;50.830;7.210;2024-01-11T10:55:44;46.25;;;30.52;;
12635;SDS011;6383;50.830;7.210;2024-01-11T10:58:14;46.28;;;32.13;;
12635;SDS011;6383;50.830;7.210;2024-01-11T11:00:45;46.38;;;31.33;;
12635;SDS011;6383;50.830;7.210;2024-01-11T11:03:15;48.28;;;31.08;;
12635;SDS011;6383;50.830;7.210;2024-01-11T11:05:47;48.35;;;31.90;;
12635;SDS011;6383;50.830;7.210;2024-01-11T11:08:18;46.90;;;32.30;;
12635;SDS011;6383;50.830;7.210;2024-01-11T11:10:49;43.15;;;31.05;;
12635;SDS011;6383;50.830;7.210;2024-01-11T11:13:23;52.17;;;34.30;;
12635;SDS011;6383;50.830;7.210;2024-01-11T11:15:53;48.85;;;33.55;;
12635;SDS011;6383;50.830;7.210;2024-01-11T11:18:22;48.92;;;32.30;;
12635;SDS011;6383;50.830;7.210;2024-01-11T11:20:51;44.97;;;31.58;;
12635;SDS011;6383;50.830;7.210;2024-01-11T11:23:21;48.08;;;32.95;;
12635;SDS011;6383;50.830;7.210;2024-01-11T11:25:53;48.50;;;33.22;;
12635;SDS011;6383;50.830;7.210;2024-01-11T11:28:24;49.20;;;32.97;;
12635;SDS011;6383;50.830;7.210;2024-01-11T11:30:54;49.03;;;32.50;;
12635;SDS011;6383;50.830;7.210;2024-01-11T11:33:25;48.72;;;33.05;;
12635;SDS011;6383;50.830;7.210;2024-01-11T11:35:55;48.50;;;32.72;;
12635;SDS011;6383;50.830;7.210;2024-01-11T11:38:26;46.58;;;32.72;;
12635;SDS011;6383;50.830;7.210;2024-01-11T11:40:58;44.05;;;31.70;;
12635;SDS011;6383;50.830;7.210;2024-01-11T11:43:29;43.15;;;31.25;;
12635;SDS011;6383;50.830;7.210;2024-01-11T11:46:00;43.80;;;30.63;;
12635;SDS011;6383;50.830;7.210;2024-01-11T11:48:50;44.88;;;31.90;;
12635;SDS011;6383;50.830;7.210;2024-01-11T11:51:20;43.90;;;32.60;;
12635;SDS011;6383;50.830;7.210;2024-01-11T11:53:50;49.28;;;30.60;;
12635;SDS011;6383;50.830;7.210;2024-01-11T11:56:22;41.47;;;31.13;;
12635;SDS011;6383;50.830;7.210;2024-01-11T11:58:52;41.30;;;31.42;;
12635;SDS011;6383;50.830;7.210;2024-01-11T12:01:22;43.70;;;31.83;;
12635;SDS011;6383;50.830;7.210;2024-01-11T12:03:52;45.97;;;31.77;;
12635;SDS011;6383;50.830;7.210;2024-01-11T12:06:21;46.35;;;33.03;;
12635;SDS011;6383;50.830;7.210;2024-01-11T12:08:52;45.53;;;32.47;;
12635;SDS011;6383;50.830;7.210;2024-01-11T12:11:23;50.83;;;35.40;;
12635;SDS011;6383;50.830;7.210;2024-01-11T12:13:53;44.78;;;33.58;;
12635;SDS011;6383;50.830;7.210;2024-01-11T12:16:24;45.15;;;31.95;;
12635;SDS011;6383;50.830;7.210;2024-01-11T12:18:54;42.70;;;32.50;;
12635;SDS011;6383;50.830;7.210;2024-01-11T12:21:23;44.33;;;32.33;;
12635;SDS011;6383;50.830;7.210;2024-01-11T12:23:53;46.45;;;33.42;;
12635;SDS011;6383;50.830;7.210;2024-01-11T12:26:24;42.83;;;32.35;;
12635;SDS011;6383;50.830;7.210;2024-01-11T12:28:54;47.42;;;33.30;;
12635;SDS011;6383;50.830;7.210;2024-01-11T12:31:23;49.63;;;34.35;;
12635;SDS011;6383;50.830;7.210;2024-01-11T12:33:52;47.90;;;32.55;;
12635;SDS011;6383;50.830;7.210;2024-01-11T12:36:22;43.50;;;31.83;;
12635;SDS011;6383;50.830;7.210;2024-01-11T12:38:53;47.25;;;32.58;;
12635;SDS011;6383;50.830;7.210;2024-01-11T12:41:22;50.67;;;32.80;;
12635;SDS011;6383;50.830;7.210;2024-01-11T12:43:53;48.63;;;32.60;;
12635;SDS011;6383;50.830;7.210;2024-01-11T12:46:22;44.20;;;31.40;;
12635;SDS011;6383;50.830;7.210;2024-01-11T12:48:52;46.05;;;32.85;;
12635;SDS011;6383;50.830;7.210;2024-01-11T12:51:21;44.22;;;32.80;;
12635;SDS011;6383;50.830;7.210;2024-01-11T12:53:52;48.90;;;31.90;;
12635;SDS011;6383;50.830;7.210;2024-01-11T12:56:22;49.83;;;33.28;;
12635;SDS011;6383;50.830;7.210;2024-01-11T12:59:05;47.92;;;32.90;;
12635;SDS011;6383;50.830;7.210;2024-01-11T13:01:34;47.28;;;31.23;;
12635;SDS011;6383;50.830;7.210;2024-01-11T13:04:02;46.77;;;31.43;;
12635;SDS011;6383;50.830;7.210;2024-01-11T13:06:32;44.95;;;31.23;;
12635;SDS011;6383;50.830;7.210;2024-01-11T13:09:02;50.67;;;32.17;;
12635;SDS011;6383;50.830;7.210;2024-01-11T13:11:32;47.50;;;31.00;;
12635;SDS011;6383;50.830;7.210;2024-01-11T13:14:01;40.97;;;30.13;;
12635;SDS011;6383;50.830;7.210;2024-01-11T13:16:34;47.80;;;31.05;;
12635;SDS011;6383;50.830;7.210;2024-01-11T13:19:02;44.42;;;30.38;;
12635;SDS011;6383;50.830;7.210;2024-01-11T13:21:32;47.78;;;31.67;;
12635;SDS011;6383;50.830;7.210;2024-01-11T13:24:01;44.17;;;30.63;;
12635;SDS011;6383;50.830;7.210;2024-01-11T13:26:30;49.28;;;30.98;;
12635;SDS011;6383;50.830;7.210;2024-01-11T13:28:59;43.40;;;31.20;;
12635;SDS011;6383;50.830;7.210;2024-01-11T13:31:28;50.90;;;32.15;;
12635;SDS011;6383;50.830;7.210;2024-01-11T13:33:59;43.60;;;31.70;;
12635;SDS011;6383;50.830;7.210;2024-01-11T13:36:28;46.22;;;31.70;;
12635;SDS011;6383;50.830;7.210;2024-01-11T13:39:00;43.50;;;31.37;;
12635;SDS011;6383;50.830;7.210;2024-01-11T13:41:29;48.92;;;31.42;;
12635;SDS011;6383;50.830;7.210;2024-01-11T13:43:58;49.38;;;33.05;;
12635;SDS011;6383;50.830;7.210;2024-01-11T13:46:28;46.42;;;32.58;;
12635;SDS011;6383;50.830;7.210;2024-01-11T13:48:58;47.83;;;32.95;;
12635;SDS011;6383;50.830;7.210;2024-01-11T13:51:28;49.33;;;33.45;;
12635;SDS011;6383;50.830;7.210;2024-01-11T13:53:59;52.35;;;33.33;;
12635;SDS011;6383;50.830;7.210;2024-01-11T13:56:29;49.83;;;33.33;;
12635;SDS011;6383;50.830;7.210;2024-01-11T13:59:01;57.72;;;38.03;;
12635;SDS011;6383;50.830;7.210;2024-01-11T14:01:30;48.90;;;34.72;;
12635;SDS011;6383;50.830;7.210;2024-01-11T14:04:00;50.40;;;34.55;;
12635;SDS011;6383;50.830;7.210;2024-01-11T14:06:31;49.47;;;35.50;;
12635;SDS011;6383;50.830;7.210;2024-01-11T14:09:00;58.20;;;38.33;;
12635;SDS011;6383;50.830;7.210;2024-01-11T14:11:30;58.67;;;38.75;;
12635;SDS011;6383;50.830;7.210;2024-01-11T14:13:59;56.25;;;39.00;;
12635;SDS011;6383;50.830;7.210;2024-01-11T14:16:28;55.33;;;38.92;;
12635;SDS011;6383;50.830;7.210;2024-01-11T14:18:58;62.00;;;42.00;;
12635;SDS011;6383;50.830;7.210;2024-01-11T14:21:31;58.70;;;40.60;;
12635;SDS011;6383;50.830;7.210;2024-01-11T14:24:00;55.92;;;40.05;;
12635;SDS011;6383;50.830;7.210;2024-01-11T14:26:38;60.33;;;40.70;;
12635;SDS011;6383;50.830;7.210;2024-01-11T14:29:08;57.38;;;38.60;;
12635;SDS011;6383;50.830;7.210;2024-01-11T14:31:38;57.03;;;38.40;;
12635;SDS011;6383;50.830;7.210;2024-01-11T14:34:07;60.03;;;38.90;;
12635;SDS011;6383;50.830;7.210;2024-01-11T14:36:39;55.43;;;38.13;;
12635;SDS011;6383;50.830;7.210;2024-01-11T14:39:08;58.35;;;38.90;;
12635;SDS011;6383;50.830;7.210;2024-01-11T14:41:37;60.55;;;38.33;;
12635;SDS011;6383;50.830;7.210;2024-01-11T14:44:05;57.00;;;34.87;;
12635;SDS011;6383;50.830;7.210;2024-01-11T14:46:33;52.22;;;33.95;;
12635;SDS011;6383;50.830;7.210;2024-01-11T14:49:03;54.35;;;36.15;;